createdAt,value
2023-05-06T00:02:12.551Z,2.72
2023-05-06T00:04:41.077Z,2.90
2023-05-06T00:07:08.688Z,3.30
2023-05-06T00:09:36.366Z,2.95
2023-05-06T00:12:05.447Z,2.63
2023-05-06T00:14:33.177Z,2.55
2023-05-06T00:17:00.667Z,3.08
2023-05-06T00:19:28.496Z,3.28
2023-05-06T00:21:55.998Z,3.35
2023-05-06T00:24:23.866Z,3.13
2023-05-06T00:26:51.341Z,2.95
2023-05-06T00:29:19.073Z,2.70
2023-05-06T00:31:46.501Z,3.63
2023-05-06T00:34:14.220Z,4.05
2023-05-06T00:36:42.875Z,5.22
2023-05-06T00:39:10.645Z,6.05
2023-05-06T00:41:37.996Z,4.78
2023-05-06T00:44:05.859Z,3.33
2023-05-06T00:46:33.743Z,4.38
2023-05-06T00:49:01.438Z,3.78
2023-05-06T00:51:28.960Z,3.15
2023-05-06T00:53:56.803Z,3.30
2023-05-06T00:56:24.309Z,3.03
2023-05-06T00:58:52.167Z,3.60
2023-05-06T01:01:19.581Z,2.58
2023-05-06T01:03:47.456Z,3.47
2023-05-06T01:06:18.790Z,3.70
2023-05-06T01:09:06.761Z,3.45
2023-05-06T01:11:38.575Z,3.45
2023-05-06T01:14:10.913Z,2.85
2023-05-06T01:16:40.574Z,3.55
2023-05-06T01:19:10.319Z,3.53
2023-05-06T01:21:38.225Z,3.30
2023-05-06T01:24:06.053Z,3.35
2023-05-06T01:26:33.411Z,4.40
2023-05-06T01:29:02.422Z,4.55
2023-05-06T01:31:43.664Z,3.10
2023-05-06T01:34:17.454Z,3.33
2023-05-06T01:36:59.170Z,3.78
2023-05-06T01:39:27.535Z,3.53
2023-05-06T01:41:57.336Z,3.72
2023-05-06T01:44:26.466Z,3.22
2023-05-06T01:46:54.649Z,3.67
2023-05-06T01:49:24.097Z,3.10
2023-05-06T01:51:52.413Z,3.35
2023-05-06T01:54:20.246Z,3.30
2023-05-06T01:56:47.708Z,3.10
2023-05-06T01:59:15.352Z,2.92
2023-05-06T02:01:42.752Z,3.90
2023-05-06T02:04:10.569Z,3.05
2023-05-06T02:06:37.942Z,3.10
2023-05-06T02:09:06.268Z,3.60
2023-05-06T02:11:33.647Z,2.90
2023-05-06T02:14:02.074Z,2.72
2023-05-06T02:16:29.754Z,2.97
2023-05-06T02:18:57.390Z,3.83
2023-05-06T02:21:24.807Z,3.25
2023-05-06T02:23:52.551Z,3.55
2023-05-06T02:26:19.895Z,3.03
2023-05-06T02:28:47.561Z,2.92
2023-05-06T02:31:18.020Z,3.20
2023-05-06T02:33:46.144Z,3.55
2023-05-06T02:36:13.489Z,3.50
2023-05-06T02:38:41.293Z,2.90
2023-05-06T02:41:08.643Z,2.50
2023-05-06T02:43:36.339Z,3.08
2023-05-06T02:46:03.732Z,3.20
2023-05-06T02:48:31.385Z,2.63
2023-05-06T02:50:58.765Z,2.75
2023-05-06T02:53:26.435Z,2.85
2023-05-06T02:55:53.809Z,2.75
2023-05-06T02:58:21.475Z,3.17
2023-05-06T03:00:48.926Z,3.08
2023-05-06T03:03:16.554Z,3.28
2023-05-06T03:05:43.828Z,2.70
2023-05-06T03:08:11.402Z,2.80
2023-05-06T03:10:38.722Z,3.30
2023-05-06T03:13:06.328Z,2.60
2023-05-06T03:15:33.753Z,2.72
2023-05-06T03:18:01.457Z,2.88
2023-05-06T03:20:28.968Z,3.25
2023-05-06T03:22:56.668Z,2.90
2023-05-06T03:25:24.241Z,2.58
2023-05-06T03:27:51.869Z,3.05
2023-05-06T03:30:19.214Z,3.00
2023-05-06T03:32:48.757Z,3.08
2023-05-06T03:35:16.690Z,2.65
2023-05-06T03:37:44.258Z,3.05
2023-05-06T03:40:11.709Z,3.53
2023-05-06T03:42:39.290Z,2.80
2023-05-06T03:45:09.196Z,2.60
2023-05-06T03:47:37.026Z,3.05
2023-05-06T03:50:04.639Z,3.20
2023-05-06T03:52:32.327Z,3.40
2023-05-06T03:54:59.629Z,3.33
2023-05-06T03:57:27.252Z,3.80
2023-05-06T03:59:54.544Z,3.55
2023-05-06T04:02:22.216Z,3.65
2023-05-06T04:04:49.574Z,3.30
2023-05-06T04:07:17.185Z,2.70
2023-05-06T04:09:44.572Z,4.10
2023-05-06T04:12:12.147Z,3.20
2023-05-06T04:14:40.197Z,3.33
2023-05-06T04:17:08.050Z,3.55
2023-05-06T04:19:35.363Z,3.40
2023-05-06T04:22:03.035Z,3.97
2023-05-06T04:24:31.216Z,2.72
2023-05-06T04:26:59.149Z,2.40
2023-05-06T04:29:28.438Z,3.50
2023-05-06T04:31:56.443Z,3.50
2023-05-06T04:34:25.221Z,2.70
2023-05-06T04:36:54.307Z,2.65
2023-05-06T04:39:21.657Z,2.35
2023-05-06T04:41:49.206Z,3.10
2023-05-06T04:44:16.742Z,3.20
2023-05-06T04:46:44.491Z,2.78
2023-05-06T04:49:12.591Z,2.55
2023-05-06T04:51:40.390Z,2.45
2023-05-06T04:54:07.691Z,2.42
2023-05-06T04:56:35.282Z,2.63
2023-05-06T04:59:02.629Z,2.58
2023-05-06T05:01:31.123Z,2.65
2023-05-06T05:03:58.485Z,2.83
2023-05-06T05:06:26.105Z,2.00
2023-05-06T05:08:55.244Z,2.38
2023-05-06T05:11:23.083Z,1.90
2023-05-06T05:13:50.464Z,1.83
2023-05-06T05:16:18.347Z,2.08
2023-05-06T05:18:45.659Z,2.42
2023-05-06T05:21:13.253Z,2.50
2023-05-06T05:23:40.686Z,4.07
2023-05-06T05:26:08.312Z,4.45
2023-05-06T05:28:35.572Z,4.60
2023-05-06T05:31:04.225Z,3.75
2023-05-06T05:33:31.623Z,3.28
2023-05-06T05:35:59.351Z,2.38
2023-05-06T05:38:26.640Z,1.90
2023-05-06T05:40:54.271Z,1.75
2023-05-06T05:43:22.701Z,2.83
2023-05-06T05:45:50.371Z,1.98
2023-05-06T05:48:17.732Z,2.33
2023-05-06T05:50:46.047Z,1.90
2023-05-06T05:53:13.413Z,1.67
2023-05-06T05:55:40.970Z,1.50
2023-05-06T05:58:08.244Z,1.70
2023-05-06T06:00:35.829Z,1.52
2023-05-06T06:03:03.366Z,2.22
2023-05-06T06:05:31.115Z,1.88
2023-05-06T06:07:59.081Z,1.85
2023-05-06T06:10:26.720Z,1.52
2023-05-06T06:12:54.017Z,1.50
2023-05-06T06:15:22.092Z,1.58
2023-05-06T06:17:49.565Z,1.48
2023-05-06T06:20:17.242Z,1.73
2023-05-06T06:22:44.539Z,1.58
2023-05-06T06:25:12.530Z,1.60
2023-05-06T06:27:39.935Z,1.60
2023-05-06T06:30:07.844Z,1.80
2023-05-06T06:32:35.429Z,1.65
2023-05-06T06:35:03.072Z,1.80
2023-05-06T06:37:30.404Z,1.55
2023-05-06T06:39:58.168Z,1.27
2023-05-06T06:42:26.208Z,1.35
2023-05-06T06:44:54.796Z,1.50
2023-05-06T06:47:22.230Z,1.42
2023-05-06T06:49:49.834Z,1.08
2023-05-06T06:52:17.079Z,1.38
2023-05-06T06:54:45.002Z,1.33
2023-05-06T06:57:12.331Z,1.27
2023-05-06T06:59:39.950Z,1.02
2023-05-06T07:02:07.398Z,1.33
2023-05-06T07:04:35.151Z,1.30
2023-05-06T07:07:02.431Z,1.27
2023-05-06T07:09:30.054Z,2.03
2023-05-06T07:11:58.537Z,1.48
2023-05-06T07:14:26.171Z,1.10
2023-05-06T07:16:53.717Z,1.30
2023-05-06T07:19:21.902Z,1.17
2023-05-06T07:21:49.212Z,1.10
2023-05-06T07:24:16.924Z,1.20
2023-05-06T07:26:45.080Z,1.77
2023-05-06T07:29:12.635Z,1.20
2023-05-06T07:31:40.117Z,1.58
2023-05-06T07:34:07.791Z,1.60
2023-05-06T07:36:40.401Z,1.52
2023-05-06T07:39:08.491Z,1.55
2023-05-06T07:41:36.057Z,1.20
2023-05-06T07:44:03.835Z,1.30
2023-05-06T07:46:31.324Z,1.40
2023-05-06T07:48:58.980Z,1.40
2023-05-06T07:51:27.080Z,1.65
2023-05-06T07:53:54.664Z,1.52
2023-05-06T07:56:21.949Z,1.60
2023-05-06T07:58:49.582Z,1.23
2023-05-06T08:01:16.894Z,1.40
2023-05-06T08:03:44.782Z,1.60
2023-05-06T08:06:12.192Z,1.55
2023-05-06T08:08:39.832Z,1.30
2023-05-06T08:11:07.116Z,1.80
2023-05-06T08:13:34.695Z,1.42
2023-05-06T08:16:02.465Z,1.30
2023-05-06T08:18:30.333Z,2.20
2023-05-06T08:20:57.647Z,1.65
2023-05-06T08:23:25.452Z,1.33
2023-05-06T08:25:52.717Z,2.13
2023-05-06T08:28:20.634Z,1.45
2023-05-06T08:30:48.597Z,1.83
2023-05-06T08:33:16.255Z,1.20
2023-05-06T08:35:44.809Z,1.33
2023-05-06T08:38:12.448Z,1.23
2023-05-06T08:40:43.202Z,1.30
2023-05-06T08:43:20.472Z,1.40
2023-05-06T08:45:48.151Z,1.42
2023-05-06T08:48:16.746Z,1.25
2023-05-06T08:50:44.454Z,1.17
2023-05-06T08:53:13.400Z,1.33
2023-05-06T08:55:42.052Z,1.45
2023-05-06T08:58:09.405Z,1.60
2023-05-06T09:00:37.464Z,1.10
2023-05-06T09:03:05.056Z,1.30
2023-05-06T09:05:32.760Z,1.48
2023-05-06T09:08:00.101Z,1.35
2023-05-06T09:10:32.533Z,1.40
2023-05-06T09:12:59.909Z,1.20
2023-05-06T09:15:27.550Z,1.40
2023-05-06T09:17:56.242Z,1.50
2023-05-06T09:20:23.940Z,1.33
2023-05-06T09:22:51.704Z,1.38
2023-05-06T09:25:19.662Z,1.25
2023-05-06T09:27:46.925Z,1.70
2023-05-06T09:30:14.924Z,1.33
2023-05-06T09:32:42.699Z,1.33
2023-05-06T09:35:11.649Z,1.33
2023-05-06T09:37:39.973Z,1.20
2023-05-06T09:40:09.331Z,1.48
2023-05-06T09:42:36.710Z,1.75
2023-05-06T09:45:04.384Z,1.83
2023-05-06T09:47:35.402Z,1.60
2023-05-06T09:50:03.986Z,1.75
2023-05-06T09:52:31.731Z,1.48
2023-05-06T09:55:00.206Z,1.80
2023-05-06T09:57:30.943Z,1.52
2023-05-06T09:59:59.243Z,1.67
2023-05-06T10:02:27.294Z,1.30
2023-05-06T10:04:55.393Z,1.38
2023-05-06T10:07:23.541Z,2.50
2023-05-06T10:09:51.555Z,1.45
2023-05-06T10:12:19.752Z,1.10
2023-05-06T10:14:47.946Z,1.75
2023-05-06T10:17:16.030Z,1.60
2023-05-06T10:19:45.808Z,1.38
2023-05-06T10:22:37.802Z,1.05
2023-05-06T10:25:06.896Z,1.50
2023-05-06T10:27:38.268Z,1.13
2023-05-06T10:30:06.377Z,2.40
2023-05-06T10:32:33.952Z,1.77
2023-05-06T10:35:11.696Z,1.70
2023-05-06T10:37:39.909Z,1.30
2023-05-06T10:40:10.090Z,1.58
2023-05-06T10:42:37.429Z,1.48
2023-05-06T10:45:06.341Z,1.77
2023-05-06T10:47:52.435Z,1.85
2023-05-06T10:50:27.576Z,1.75
2023-05-06T10:52:56.242Z,2.00
2023-05-06T10:55:31.628Z,1.90
2023-05-06T10:58:06.910Z,1.50
2023-05-06T11:00:35.082Z,1.30
2023-05-06T11:03:03.760Z,1.30
2023-05-06T11:05:31.709Z,1.60
2023-05-06T11:08:10.092Z,1.70
2023-05-06T11:10:37.900Z,1.50
2023-05-06T11:13:22.223Z,1.33
2023-05-06T11:15:53.104Z,1.52
2023-05-06T11:18:26.832Z,1.70
2023-05-06T11:21:03.679Z,1.45
2023-05-06T11:23:43.395Z,1.10
2023-05-06T11:26:11.333Z,1.50
2023-05-06T11:28:38.968Z,1.38
2023-05-06T11:31:07.642Z,1.80
2023-05-06T11:33:36.659Z,2.30
2023-05-06T11:36:05.003Z,1.27
2023-05-06T11:38:48.110Z,1.98
2023-05-06T11:41:16.555Z,2.08
2023-05-06T11:43:47.628Z,3.10
2023-05-06T11:46:15.258Z,1.65
2023-05-06T11:48:44.013Z,1.73
2023-05-06T11:51:11.920Z,1.40
2023-05-06T11:53:39.411Z,1.42
2023-05-06T11:56:07.471Z,1.85
2023-05-06T11:58:34.765Z,2.67
2023-05-06T12:01:03.623Z,1.80
2023-05-06T12:03:31.794Z,2.50
2023-05-06T12:05:59.983Z,3.38
2023-05-06T12:08:31.021Z,1.58
2023-05-06T12:11:00.212Z,2.15
2023-05-06T12:13:27.889Z,2.10
2023-05-06T12:15:56.137Z,3.92
2023-05-06T12:18:24.168Z,3.25
2023-05-06T12:20:54.657Z,2.10
2023-05-06T12:23:22.409Z,2.35
2023-05-06T12:26:03.882Z,3.30
2023-05-06T12:28:31.981Z,2.70
2023-05-06T12:30:59.775Z,2.47
2023-05-06T12:33:27.102Z,2.13
2023-05-06T12:35:58.252Z,2.75
2023-05-06T12:38:25.625Z,1.67
2023-05-06T12:40:54.374Z,2.05
2023-05-06T12:43:29.190Z,1.85
2023-05-06T12:46:04.542Z,1.90
2023-05-06T12:48:31.918Z,1.70
2023-05-06T12:50:59.684Z,1.48
2023-05-06T12:53:34.201Z,4.05
2023-05-06T12:56:01.966Z,1.90
2023-05-06T12:58:29.249Z,1.83
2023-05-06T13:00:56.969Z,1.67
2023-05-06T13:03:24.435Z,1.55
2023-05-06T13:05:52.117Z,1.58
2023-05-06T13:08:19.450Z,2.97
2023-05-06T13:10:47.095Z,1.75
2023-05-06T13:13:14.477Z,2.10
2023-05-06T13:15:42.193Z,3.10
2023-05-06T13:18:09.662Z,3.58
2023-05-06T13:20:37.336Z,3.75
2023-05-06T13:23:04.775Z,3.25
2023-05-06T13:25:32.362Z,2.58
2023-05-06T13:27:59.921Z,1.60
2023-05-06T13:30:27.802Z,2.08
2023-05-06T13:32:55.130Z,1.90
2023-05-06T13:35:22.762Z,2.10
2023-05-06T13:37:50.087Z,2.00
2023-05-06T13:40:17.798Z,3.90
2023-05-06T13:42:45.312Z,2.40
2023-05-06T13:45:13.021Z,3.25
2023-05-06T13:47:40.413Z,2.10
2023-05-06T13:50:08.229Z,2.80
2023-05-06T13:52:35.752Z,3.17
2023-05-06T13:55:03.579Z,5.13
2023-05-06T13:57:30.844Z,4.85
2023-05-06T13:59:58.619Z,3.47
2023-05-06T14:02:26.534Z,3.25
2023-05-06T14:04:55.186Z,2.80
2023-05-06T14:07:22.513Z,2.35
2023-05-06T14:09:50.126Z,5.25
2023-05-06T14:12:17.420Z,2.03
2023-05-06T14:14:45.053Z,4.82
2023-05-06T14:17:12.344Z,3.08
2023-05-06T14:19:39.921Z,2.17
2023-05-06T14:22:07.182Z,2.90
2023-05-06T14:24:34.870Z,2.40
2023-05-06T14:27:02.204Z,2.42
2023-05-06T14:29:29.770Z,2.75
2023-05-06T14:31:57.168Z,2.40
2023-05-06T14:34:24.978Z,2.55
2023-05-06T14:36:52.273Z,2.95
2023-05-06T14:39:20.143Z,1.83
2023-05-06T14:41:47.514Z,2.60
2023-05-06T14:44:15.269Z,2.45
2023-05-06T14:46:42.541Z,2.05
2023-05-06T14:49:10.115Z,2.70
2023-05-06T14:51:37.539Z,5.05
2023-05-06T14:54:05.204Z,7.15
2023-05-06T14:56:32.523Z,7.05
2023-05-06T14:59:01.902Z,3.83
2023-05-06T15:01:33.425Z,9.00
2023-05-06T15:04:01.517Z,5.03
2023-05-06T15:06:28.831Z,2.70
2023-05-06T15:08:56.679Z,3.65
2023-05-06T15:11:24.024Z,3.53
2023-05-06T15:13:51.636Z,3.28
2023-05-06T15:16:18.987Z,2.97
2023-05-06T15:18:46.724Z,3.78
2023-05-06T15:21:14.248Z,4.15
2023-05-06T15:23:41.914Z,2.35
2023-05-06T15:26:09.250Z,2.35
2023-05-06T15:28:36.861Z,2.15
2023-05-06T15:31:04.269Z,2.47
2023-05-06T15:33:31.979Z,2.55
2023-05-06T15:35:59.281Z,2.38
2023-05-06T15:38:26.974Z,2.25
2023-05-06T15:40:54.740Z,2.35
2023-05-06T15:43:24.286Z,3.28
2023-05-06T15:45:52.305Z,2.55
2023-05-06T15:48:20.010Z,2.78
2023-05-06T15:50:47.356Z,2.05
2023-05-06T15:53:15.064Z,2.70
2023-05-06T15:55:46.614Z,2.70
2023-05-06T15:58:20.401Z,3.10
2023-05-06T16:00:47.911Z,2.53
2023-05-06T16:03:16.401Z,3.53
2023-05-06T16:05:43.819Z,3.10
2023-05-06T16:08:11.492Z,4.50
2023-05-06T16:10:38.990Z,2.80
2023-05-06T16:13:07.031Z,3.08
2023-05-06T16:15:35.433Z,6.55
2023-05-06T16:18:03.168Z,3.72
2023-05-06T16:20:32.051Z,4.13
2023-05-06T16:22:59.782Z,2.85
2023-05-06T16:25:27.113Z,3.58
2023-05-06T16:27:55.290Z,3.67
2023-05-06T16:30:22.843Z,5.65
2023-05-06T16:32:50.505Z,1.77
2023-05-06T16:35:18.601Z,2.53
2023-05-06T16:37:46.252Z,4.15
2023-05-06T16:40:14.573Z,2.70
2023-05-06T16:42:42.223Z,2.50
2023-05-06T16:45:09.684Z,4.78
2023-05-06T16:47:37.470Z,4.45
2023-05-06T16:50:05.310Z,4.60
2023-05-06T16:52:33.129Z,4.00
2023-05-06T16:55:00.521Z,5.55
2023-05-06T16:57:28.144Z,4.25
2023-05-06T16:59:55.755Z,2.58
2023-05-06T17:02:23.578Z,3.83
2023-05-06T17:04:52.019Z,2.20
2023-05-06T17:07:20.049Z,3.50
2023-05-06T17:09:47.618Z,3.38
2023-05-06T17:12:15.604Z,4.35
2023-05-06T17:14:43.914Z,3.60
2023-05-06T17:17:11.642Z,3.92
2023-05-06T17:19:38.998Z,2.65
2023-05-06T17:22:08.102Z,3.20
2023-05-06T17:24:35.468Z,3.72
2023-05-06T17:27:03.200Z,4.60
2023-05-06T17:29:30.872Z,5.57
2023-05-06T17:31:58.505Z,4.47
2023-05-06T17:34:25.982Z,4.50
2023-05-06T17:36:53.716Z,3.15
2023-05-06T17:39:21.312Z,3.85
2023-05-06T17:41:50.021Z,2.40
2023-05-06T17:44:18.306Z,2.10
2023-05-06T17:46:46.103Z,2.25
2023-05-06T17:49:13.543Z,2.17
2023-05-06T17:51:42.538Z,1.92
2023-05-06T17:54:09.812Z,2.15
2023-05-06T17:56:37.635Z,1.98
2023-05-06T17:59:05.495Z,2.50
2023-05-06T18:01:33.119Z,2.45
2023-05-06T18:04:00.641Z,2.63
2023-05-06T18:06:28.764Z,3.13
2023-05-06T18:08:56.011Z,3.22
2023-05-06T18:11:24.680Z,3.13
2023-05-06T18:13:51.982Z,2.75
2023-05-06T18:16:20.071Z,3.22
2023-05-06T18:18:47.431Z,3.63
2023-05-06T18:21:15.462Z,3.00
2023-05-06T18:23:42.772Z,4.78
2023-05-06T18:26:10.461Z,6.97
2023-05-06T18:28:38.083Z,5.90
2023-05-06T18:31:06.211Z,6.38
2023-05-06T18:33:34.545Z,6.97
2023-05-06T18:36:03.071Z,5.60
2023-05-06T18:38:30.712Z,5.07
2023-05-06T18:40:58.570Z,3.42
2023-05-06T18:43:25.864Z,3.30
2023-05-06T18:45:53.670Z,3.60
2023-05-06T18:48:20.962Z,4.13
2023-05-06T18:50:50.508Z,4.30
2023-05-06T18:53:17.811Z,4.32
2023-05-06T18:55:45.505Z,5.10
2023-05-06T18:58:12.829Z,4.45
2023-05-06T19:00:40.905Z,4.80
2023-05-06T19:03:08.359Z,4.90
2023-05-06T19:05:37.887Z,6.07
2023-05-06T19:08:05.289Z,6.93
2023-05-06T19:10:34.408Z,14.57
2023-05-06T19:13:02.068Z,18.55
2023-05-06T19:15:29.844Z,14.77
2023-05-06T19:17:57.237Z,23.38
2023-05-06T19:20:24.957Z,17.30
2023-05-06T19:22:52.382Z,12.93
2023-05-06T19:25:19.951Z,12.52
2023-05-06T19:27:47.349Z,13.20
2023-05-06T19:30:15.207Z,16.98
2023-05-06T19:32:44.426Z,23.55
2023-05-06T19:35:12.371Z,22.75
2023-05-06T19:37:40.175Z,20.27
2023-05-06T19:40:09.012Z,19.65
2023-05-06T19:42:36.337Z,19.23
2023-05-06T19:45:07.993Z,18.55
2023-05-06T19:47:35.565Z,16.70
2023-05-06T19:50:03.482Z,17.00
2023-05-06T19:52:31.513Z,19.27
2023-05-06T19:55:01.605Z,19.77
2023-05-06T19:57:28.903Z,19.25
2023-05-06T19:59:56.784Z,19.13
2023-05-06T20:02:24.465Z,24.08
2023-05-06T20:04:52.253Z,19.80
2023-05-06T20:07:21.064Z,15.15
2023-05-06T20:09:55.132Z,11.07
2023-05-06T20:12:23.524Z,10.95
2023-05-06T20:14:51.233Z,10.85
2023-05-06T20:17:18.954Z,22.42
2023-05-06T20:19:46.773Z,32.63
2023-05-06T20:22:14.301Z,23.35
2023-05-06T20:24:42.499Z,18.20
2023-05-06T20:27:10.063Z,18.17
2023-05-06T20:29:37.793Z,13.07
2023-05-06T20:32:05.425Z,12.52
2023-05-06T20:34:33.198Z,10.52
2023-05-06T20:37:01.307Z,10.15
2023-05-06T20:39:28.908Z,9.75
2023-05-06T20:41:56.227Z,7.40
2023-05-06T20:44:25.002Z,7.32
2023-05-06T20:46:52.313Z,5.80
2023-05-06T20:49:19.941Z,5.68
2023-05-06T20:51:47.333Z,5.82
2023-05-06T20:54:14.903Z,6.30
2023-05-06T20:56:42.913Z,5.28
2023-05-06T20:59:10.873Z,5.22
2023-05-06T21:01:38.264Z,5.57
2023-05-06T21:04:06.289Z,6.22
2023-05-06T21:06:33.669Z,6.57
2023-05-06T21:09:01.298Z,6.15
2023-05-06T21:11:28.952Z,7.57
2023-05-06T21:13:56.615Z,5.80
2023-05-06T21:16:23.928Z,6.30
2023-05-06T21:18:51.576Z,9.77
2023-05-06T21:21:18.889Z,13.70
2023-05-06T21:23:46.706Z,8.75
2023-05-06T21:26:14.096Z,10.25
2023-05-06T21:28:41.880Z,14.45
2023-05-06T21:31:09.406Z,7.93
2023-05-06T21:33:37.115Z,9.50
2023-05-06T21:36:04.540Z,6.43
2023-05-06T21:38:32.105Z,11.20
2023-05-06T21:40:59.459Z,6.63
2023-05-06T21:43:27.090Z,9.27
2023-05-06T21:45:54.470Z,17.40
2023-05-06T21:48:22.150Z,34.30
2023-05-06T21:50:49.517Z,20.85
2023-05-06T21:53:17.173Z,9.27
2023-05-06T21:55:44.500Z,10.07
2023-05-06T21:58:12.255Z,7.88
2023-05-06T22:00:39.577Z,9.05
2023-05-06T22:03:07.337Z,11.13
2023-05-06T22:05:34.701Z,8.05
2023-05-06T22:08:02.383Z,14.10
2023-05-06T22:10:29.714Z,11.07
2023-05-06T22:12:57.437Z,7.03
2023-05-06T22:15:24.851Z,7.63
2023-05-06T22:17:53.040Z,10.82
2023-05-06T22:20:21.409Z,6.20
2023-05-06T22:22:51.699Z,8.02
2023-05-06T22:25:18.984Z,8.95
2023-05-06T22:27:46.557Z,7.35
2023-05-06T22:30:15.852Z,10.25
2023-05-06T22:32:43.498Z,6.57
2023-05-06T22:35:11.257Z,5.32
2023-05-06T22:37:39.004Z,6.35
2023-05-06T22:40:07.155Z,7.43
2023-05-06T22:42:34.863Z,7.97
2023-05-06T22:45:02.136Z,7.05
2023-05-06T22:47:29.795Z,5.53
2023-05-06T22:49:57.144Z,5.25
2023-05-06T22:52:25.422Z,4.50
2023-05-06T22:54:52.894Z,5.18
2023-05-06T22:57:22.809Z,4.68
2023-05-06T22:59:50.438Z,5.03
2023-05-06T23:02:17.990Z,4.82
2023-05-06T23:04:45.366Z,5.20
2023-05-06T23:07:13.852Z,7.43
2023-05-06T23:09:41.207Z,6.10
2023-05-06T23:12:08.812Z,5.28
2023-05-06T23:14:36.164Z,4.85
2023-05-06T23:17:03.843Z,5.22
2023-05-06T23:19:31.323Z,4.00
2023-05-06T23:21:59.042Z,7.03
2023-05-06T23:24:26.341Z,5.43
2023-05-06T23:26:54.451Z,6.70
2023-05-06T23:29:21.760Z,5.38
2023-05-06T23:31:49.463Z,5.28
2023-05-06T23:34:16.732Z,4.15
2023-05-06T23:36:44.453Z,4.88
2023-05-06T23:39:12.060Z,5.20
2023-05-06T23:41:39.672Z,5.13
2023-05-06T23:44:07.000Z,5.75
2023-05-06T23:46:34.627Z,6.70
2023-05-06T23:49:02.313Z,4.80
2023-05-06T23:51:29.931Z,5.13
2023-05-06T23:53:57.202Z,5.25
2023-05-06T23:56:24.949Z,4.95
2023-05-06T23:58:52.268Z,4.72
